Time;durP1;ratioP1;P1;durP2;ratioP2;P2;SDS_P1;SDS_P2;PMS_P1;PMS_P2;Temp;Humidity;BMP_temperature;BMP_pressure;BME280_temperature;BME280_humidity;BME280_pressure;Samples;Min_cycle;Max_cycle;Signal;HPM_P1;HPM_P2
2024/01/22 00:06:19;;;;;;;3.58;3.03;;;3.20;99.90;;;3.04;85.76;101140.16;4833193;29;20204;-84
2024/01/22 00:30:23;;;;;;;1.60;1.50;;;2.90;99.90;;;2.71;88.56;101078.41;5036565;28;20923;-84
2024/01/22 00:33:04;;;;;;;1.17;1.08;;;2.80;99.90;;;2.71;88.92;101079.22;5038101;28;20212;-83
2024/01/22 00:36:04;;;;;;;1.73;1.58;;;2.80;99.90;;;2.75;88.77;101059.25;5039523;28;20200;-83
2024/01/22 00:42:15;;;;;;;1.55;1.45;;;2.90;99.90;;;2.82;88.78;101054.13;5049854;28;20228;-82
2024/01/22 00:45:47;;;;;;;0.80;0.50;;;2.90;99.90;;;2.92;88.48;101058.44;5063540;28;20227;-83
2024/01/22 00:48:41;;;;;;;1.60;1.50;;;2.90;99.90;;;2.93;88.58;101057.47;5070071;28;20196;-82
2024/01/22 00:52:24;;;;;;;1.27;1.17;;;3.00;99.90;;;2.90;88.73;101064.94;5049496;28;20212;-84
2024/01/22 01:00:26;;;;;;;1.42;1.30;;;3.00;99.90;;;3.08;87.92;101038.25;5061896;28;20193;-83
2024/01/22 01:12:29;;;;;;;11.27;1.70;;;3.10;99.90;;;3.05;88.53;101007.28;5066744;28;20187;-85
2024/01/22 01:15:36;;;;;;;1.55;1.40;;;3.10;99.90;;;3.08;88.52;101001.66;5080941;28;20664;-84
2024/01/22 01:22:56;;;;;;;2.45;1.25;;;3.20;99.90;;;3.18;88.61;100991.72;5094206;28;20254;-82
2024/01/22 01:29:49;;;;;;;1.73;1.63;;;3.20;99.90;;;3.26;87.83;100988.28;5084428;28;20194;-83
2024/01/22 01:37:13;;;;;;;3.05;2.78;;;3.20;99.90;;;3.18;87.73;100982.88;5089157;28;20219;-84
2024/01/22 01:40:11;;;;;;;4.30;1.30;;;3.30;99.90;;;3.17;88.01;100970.47;5083884;28;20184;-83
2024/01/22 01:42:48;;;;;;;1.83;1.40;;;3.20;99.90;;;3.20;88.04;100965.66;5084753;28;20215;-84
2024/01/22 01:47:04;;;;;;;1.60;1.40;;;3.20;99.90;;;3.22;88.11;100971.72;5071371;28;20206;-81
2024/01/22 01:56:40;;;;;;;1.45;0.73;;;3.30;99.90;;;3.24;87.67;100921.59;5081374;28;20225;-82
2024/01/22 01:59:09;;;;;;;1.50;0.95;;;3.30;99.90;;;3.30;87.55;100926.31;5098003;28;20187;-84
2024/01/22 02:01:40;;;;;;;1.10;0.93;;;3.30;99.90;;;3.31;87.33;100919.13;5100369;28;20223;-83
2024/01/22 02:04:14;;;;;;;1.95;1.38;;;3.30;99.90;;;3.29;87.55;100907.75;5099636;28;20160;-83
2024/01/22 02:06:52;;;;;;;1.98;1.88;;;3.30;99.90;;;3.47;87.02;100911.22;5099464;28;20200;-82
2024/01/22 02:09:55;;;;;;;2.67;2.47;;;3.40;99.90;;;3.37;87.45;100899.78;5070101;28;20171;-83
2024/01/22 02:12:32;;;;;;;1.95;1.50;;;3.40;99.90;;;3.41;87.40;100906.50;5099216;28;20187;-82
2024/01/22 02:15:02;;;;;;;1.48;1.38;;;3.40;99.90;;;3.42;87.14;100879.59;5097025;28;20172;-81
2024/01/22 02:17:32;;;;;;;1.92;1.63;;;3.40;99.90;;;3.49;87.56;100887.81;5098318;28;20208;-82
2024/01/22 02:20:18;;;;;;;1.45;1.35;;;3.50;99.90;;;3.53;87.13;100885.69;5097806;28;20191;-82
2024/01/22 02:23:13;;;;;;;1.65;1.40;;;3.50;99.90;;;3.59;86.97;100883.22;5097979;28;20228;-81
2024/01/22 02:26:16;;;;;;;1.17;1.08;;;3.60;99.90;;;3.57;87.41;100862.97;5084025;28;20271;-83
2024/01/22 02:29:11;;;;;;;1.55;1.17;;;3.60;99.90;;;3.58;87.66;100870.00;5083791;28;20208;-82
2024/01/22 02:32:02;;;;;;;2.38;1.35;;;3.60;99.90;;;3.60;87.82;100866.16;5064913;28;20210;-83
2024/01/22 02:34:32;;;;;;;1.83;1.42;;;3.60;99.90;;;3.66;87.87;100841.47;5061627;28;20197;-81
2024/01/22 02:37:01;;;;;;;1.65;1.55;;;3.70;99.90;;;3.76;87.61;100833.31;5081261;28;20203;-84
2024/01/22 02:39:30;;;;;;;2.05;1.58;;;3.70;99.90;;;3.78;88.26;100828.63;5080179;28;20192;-83
2024/01/22 02:42:01;;;;;;;1.55;1.45;;;3.70;99.90;;;3.77;88.27;100838.50;5079386;28;20477;-82
2024/01/22 02:44:32;;;;;;;2.47;0.73;;;3.70;99.90;;;3.82;87.97;100846.91;5082824;28;20545;-83
2024/01/22 02:47:01;;;;;;;2.45;1.55;;;3.80;99.90;;;3.88;88.39;100835.53;5094373;28;20234;-82
2024/01/22 02:49:30;;;;;;;5.03;1.70;;;3.80;99.90;;;3.88;88.29;100838.22;5096068;28;20210;-82
2024/01/22 02:52:00;;;;;;;3.40;2.85;;;3.90;99.90;;;3.92;88.61;100834.22;5086661;28;20645;-83
2024/01/22 02:54:29;;;;;;;1.60;0.90;;;3.90;99.90;;;3.84;89.37;100817.28;5087028;28;20212;-82
2024/01/22 02:56:58;;;;;;;3.15;2.05;;;3.90;99.90;;;4.01;89.21;100805.66;5082976;28;20220;-84
2024/01/22 02:59:36;;;;;;;1.67;1.55;;;3.90;99.90;;;4.03;89.06;100813.50;5078489;28;20202;-83
2024/01/22 03:02:05;;;;;;;1.58;0.95;;;4.00;99.90;;;3.94;89.56;100810.81;5079604;28;20741;-83
2024/01/22 03:04:35;;;;;;;2.47;2.33;;;4.00;99.90;;;3.90;90.20;100816.63;5080075;28;20195;-82
2024/01/22 03:07:22;;;;;;;2.33;2.10;;;3.90;99.90;;;3.92;90.26;100804.75;5079803;28;20208;-83
2024/01/22 03:10:02;;;;;;;2.72;2.08;;;4.00;99.90;;;3.99;90.78;100793.41;5077456;28;20271;-81
2024/01/22 03:12:34;;;;;;;2.53;1.98;;;4.00;99.90;;;4.06;90.52;100784.59;5078572;28;20555;-83
2024/01/22 03:15:13;;;;;;;1.30;1.08;;;4.00;99.90;;;4.07;91.30;100785.41;5081389;28;20204;-83
2024/01/22 03:17:42;;;;;;;2.10;1.75;;;4.00;99.90;;;4.07;91.50;100777.34;5061857;28;20556;-84
2024/01/22 03:20:13;;;;;;;1.52;1.33;;;4.10;99.90;;;4.15;91.48;100778.25;5061367;28;20200;-83
2024/01/22 03:26:04;;;;;;;2.72;2.38;;;4.20;99.90;;;4.33;91.16;100764.72;5097915;28;20226;-81
2024/01/22 03:28:33;;;;;;;2.15;1.45;;;4.30;99.90;;;4.37;91.10;100772.25;5098036;28;20176;-82
2024/01/22 03:31:04;;;;;;;6.18;1.73;;;4.30;99.90;;;4.36;91.46;100767.88;5082781;28;20184;-82
2024/01/22 03:33:33;;;;;;;4.10;2.30;;;4.40;99.90;;;4.42;91.38;100765.56;5080890;28;20182;-83
2024/01/22 03:36:08;;;;;;;1.45;1.33;;;4.40;99.90;;;4.49;90.98;100759.38;5078547;28;20192;-83
2024/01/22 03:38:40;;;;;;;1.05;0.95;;;4.40;99.90;;;4.50;91.21;100755.72;5059369;28;20179;-82
2024/01/22 03:41:10;;;;;;;1.25;1.15;;;4.50;99.90;;;4.57;91.12;100745.97;5077533;28;20188;-84
2024/01/22 03:43:42;;;;;;;1.55;1.45;;;4.50;99.90;;;4.51;91.60;100749.31;5080575;28;20199;-83
2024/01/22 03:46:15;;;;;;;3.25;1.52;;;4.50;99.90;;;4.66;91.37;100750.34;5074551;28;20193;-83
2024/01/22 03:48:45;;;;;;;1.88;1.58;;;4.50;99.90;;;4.59;91.45;100744.00;5067338;28;20215;-83
2024/01/22 03:51:14;;;;;;;1.77;1.67;;;4.50;99.90;;;4.62;91.70;100722.19;5081152;28;20174;-83
2024/01/22 03:53:43;;;;;;;2.28;1.25;;;4.60;99.90;;;4.62;91.49;100722.19;5061073;28;20184;-83
2024/01/22 03:56:13;;;;;;;1.85;1.75;;;4.60;99.90;;;4.68;91.89;100713.50;5062984;28;20193;-82
2024/01/22 03:58:44;;;;;;;1.52;1.42;;;4.60;99.90;;;4.72;92.29;100728.22;5060718;28;20242;-83
2024/01/22 04:01:23;;;;;;;3.55;2.17;;;4.70;99.90;;;4.68;93.01;100720.69;5060484;28;20180;-84
2024/01/22 04:03:52;;;;;;;3.08;2.42;;;4.70;99.90;;;4.76;94.10;100681.31;5060923;28;20212;-84
2024/01/22 04:06:22;;;;;;;1.17;1.08;;;4.70;99.90;;;4.75;94.68;100685.00;5061802;28;20205;-82
2024/01/22 04:08:55;;;;;;;1.67;1.58;;;4.70;99.90;;;4.63;95.41;100659.56;5060531;28;20200;-84
2024/01/22 04:11:24;;;;;;;1.00;0.90;;;4.60;99.90;;;4.81;95.49;100662.03;5060280;28;20611;-84
2024/01/22 04:14:06;;;;;;;1.45;1.25;;;4.70;99.90;;;4.65;95.51;100672.75;5062178;28;20634;-83
2024/01/22 04:17:23;;;;;;;1.25;1.15;;;4.60;99.90;;;4.72;95.73;100658.53;5075050;28;20268;-82
2024/01/22 04:23:57;;;;;;;1.08;0.95;;;4.70;99.90;;;4.69;95.72;100661.56;5074060;28;20208;-82
2024/01/22 04:27:09;;;;;;;1.45;1.35;;;4.70;99.90;;;4.63;95.66;100635.44;5073503;28;20231;-82
2024/01/22 04:30:06;;;;;;;2.88;1.63;;;4.70;99.90;;;4.81;95.11;100646.78;5063531;28;20215;-81
2024/01/22 04:37:03;;;;;;;1.45;0.88;;;4.80;99.90;;;4.88;94.16;100684.47;5056942;28;20203;-84
2024/01/22 04:40:16;;;;;;;1.88;1.77;;;4.90;99.90;;;4.83;94.94;100670.75;5056165;28;20199;-82
2024/01/22 04:47:09;;;;;;;1.58;0.98;;;4.80;99.90;;;4.82;95.70;100658.34;5064190;28;20197;-82
2024/01/22 04:50:18;;;;;;;1.38;0.90;;;4.80;99.90;;;4.88;95.53;100640.75;5080116;28;20189;-82
2024/01/22 04:52:56;;;;;;;1.98;1.70;;;4.80;99.90;;;4.95;95.30;100631.00;5058693;28;20187;-82
2024/01/22 04:55:41;;;;;;;1.17;0.88;;;4.90;99.90;;;4.98;95.10;100630.66;5056503;28;20195;-82
2024/01/22 04:58:46;;;;;;;1.00;0.70;;;5.00;99.90;;;4.95;95.83;100596.97;5073887;28;20281;-84
2024/01/22 05:01:15;;;;;;;2.83;1.45;;;4.90;99.90;;;5.07;94.44;100544.63;5068047;28;20209;-83
2024/01/22 05:03:44;;;;;;;2.55;2.22;;;5.00;99.90;;;5.11;94.71;100484.25;5073283;28;20212;-84
2024/01/22 05:06:15;;;;;;;1.10;1.00;;;5.00;99.90;;;5.17;93.85;100485.41;5073115;28;20638;-83
2024/01/22 05:08:44;;;;;;;1.83;1.65;;;5.10;99.90;;;5.16;93.24;100542.75;5075897;28;20188;-82
2024/01/22 05:11:13;;;;;;;3.08;2.78;;;5.10;99.90;;;5.22;93.70;100553.63;5077579;28;20153;-82
2024/01/22 05:13:49;;;;;;;1.65;1.55;;;5.20;99.90;;;5.09;93.91;100525.66;5073739;28;20181;-84
2024/01/22 05:16:20;;;;;;;1.15;1.05;;;5.10;99.90;;;5.15;94.15;100546.44;5064588;28;20243;-82
2024/01/22 05:18:53;;;;;;;3.15;1.38;;;5.10;99.90;;;5.15;94.11;100519.59;5063827;28;20197;-83
2024/01/22 05:21:24;;;;;;;2.08;1.55;;;5.10;99.90;;;5.20;94.47;100522.59;5064816;28;20249;-83
2024/01/22 05:23:52;;;;;;;2.10;1.05;;;5.20;99.90;;;5.14;94.82;100507.19;5062227;28;20196;-85
2024/01/22 05:26:30;;;;;;;0.90;0.70;;;5.10;99.90;;;5.17;94.10;100490.78;5063971;28;20217;-83
2024/01/22 05:28:59;;;;;;;1.00;0.73;;;5.10;99.90;;;5.07;94.79;100468.72;5065370;28;20184;-82
2024/01/22 05:31:28;;;;;;;1.10;1.00;;;5.10;99.90;;;5.27;94.32;100477.97;5071700;28;20189;-82
2024/01/22 05:33:57;;;;;;;1.67;1.23;;;5.20;99.90;;;5.30;93.94;100479.44;5073540;28;20181;-82
2024/01/22 05:36:27;;;;;;;1.08;0.90;;;5.20;99.90;;;5.17;94.32;100459.44;5045668;28;20275;-82
2024/01/22 05:38:59;;;;;;;1.05;0.68;;;5.20;99.90;;;5.31;94.20;100476.59;5047050;28;20193;-82
2024/01/22 05:41:28;;;;;;;1.30;0.88;;;5.20;99.90;;;5.46;93.13;100469.44;5062386;28;20200;-84
2024/01/22 05:43:56;;;;;;;2.60;1.50;;;5.40;99.90;;;5.53;92.76;100465.00;5060415;28;20302;-84
2024/01/22 05:46:28;;;;;;;0.90;0.60;;;5.40;99.90;;;5.54;92.80;100449.75;5058517;28;20200;-82
2024/01/22 05:49:06;;;;;;;0.90;0.65;;;5.50;99.90;;;5.70;92.11;100438.88;5041473;28;20220;-84
2024/01/22 05:51:42;;;;;;;1.33;1.23;;;5.60;99.90;;;5.72;91.94;100438.69;5043136;28;20269;-85
2024/01/22 05:54:15;;;;;;;1.50;1.30;;;5.60;99.90;;;5.82;91.54;100450.00;5049831;28;20176;-83
2024/01/22 05:56:53;;;;;;;1.80;1.60;;;5.70;99.90;;;5.93;90.90;100439.69;5057868;28;20315;-83
2024/01/22 06:03:02;;;;;;;1.20;0.95;;;5.90;99.90;;;6.09;90.22;100426.09;5044145;28;20195;-83
2024/01/22 06:05:43;;;;;;;1.38;0.85;;;6.00;99.90;;;6.19;89.26;100419.63;5042148;28;20193;-83
2024/01/22 06:08:21;;;;;;;0.80;0.50;;;6.10;99.90;;;6.24;89.31;100404.63;5045540;28;20316;-83
2024/01/22 06:10:50;;;;;;;1.73;1.15;;;6.20;99.90;;;6.32;89.17;100399.13;5025231;28;20189;-83
2024/01/22 06:13:19;;;;;;;0.90;0.60;;;6.20;99.90;;;6.42;88.56;100401.53;5043183;28;20749;-83
2024/01/22 06:15:48;;;;;;;1.67;1.10;;;6.30;99.90;;;6.46;88.50;100409.03;5044114;28;20250;-83
2024/01/22 06:18:21;;;;;;;0.93;0.82;;;6.40;99.90;;;6.52;87.92;100389.47;5041065;28;20548;-85
2024/01/22 06:20:55;;;;;;;1.55;1.30;;;6.40;99.90;;;6.65;87.57;100404.91;5025846;28;20189;-83
2024/01/22 06:23:41;;;;;;;4.10;1.48;;;6.50;99.90;;;6.72;87.08;100400.47;5024734;28;20280;-83
2024/01/22 06:26:11;;;;;;;1.73;0.60;;;6.60;99.90;;;6.79;86.46;100413.97;5040846;28;20186;-83
2024/01/22 06:28:40;;;;;;;1.75;1.65;;;6.70;99.90;;;6.86;86.29;100409.50;5043876;28;20356;-83
2024/01/22 06:31:14;;;;;;;1.42;1.20;;;6.80;99.90;;;6.94;85.78;100407.53;5047358;28;20177;-84
2024/01/22 06:36:50;;;;;;;0.80;0.60;;;6.90;99.90;;;6.97;85.37;100399.06;5059014;28;20236;-82
2024/01/22 06:39:30;;;;;;;1.20;0.85;;;6.90;99.90;;;7.07;85.05;100389.88;5075796;28;20185;-82
2024/01/22 06:42:09;;;;;;;1.05;0.95;;;7.00;99.90;;;7.13;85.21;100399.84;5077884;28;20181;-81
2024/01/22 06:45:11;;;;;;;1.05;0.80;;;7.00;99.90;;;7.14;84.92;100406.91;5076288;28;20239;-83
2024/01/22 06:47:58;;;;;;;1.25;0.75;;;7.10;99.90;;;7.27;83.76;100394.41;5056899;28;20226;-84
2024/01/22 06:55:01;;;;;;;0.98;0.70;;;7.20;99.90;;;7.28;84.03;100393.38;4975412;28;20206;-82
2024/01/22 07:00:37;;;;;;;3.60;2.00;;;7.20;99.90;;;7.35;83.79;100382.69;5008381;28;20208;-82
2024/01/22 07:03:09;;;;;;;1.00;0.70;;;7.20;99.90;;;7.37;83.80;100377.94;4987500;28;20191;-83
2024/01/22 07:05:40;;;;;;;0.90;0.80;;;7.20;99.90;;;7.35;83.51;100372.75;5007306;28;20288;-81
2024/01/22 07:11:15;;;;;;;1.35;0.93;;;7.40;99.90;;;7.42;83.05;100365.56;5037058;28;20206;-78
2024/01/22 07:13:51;;;;;;;3.40;1.20;;;7.30;99.90;;;7.42;83.07;100346.72;5057490;28;20194;-81
2024/01/22 07:16:22;;;;;;;1.55;0.70;;;7.40;99.90;;;7.52;82.50;100342.84;5058261;28;20214;-79
2024/01/22 07:18:54;;;;;;;3.08;1.40;;;7.40;99.90;;;7.52;82.33;100340.16;5051900;28;20184;-80
2024/01/22 07:21:26;;;;;;;1.20;0.70;;;7.40;99.90;;;7.51;82.46;100350.09;5058769;28;20174;-80
2024/01/22 07:24:04;;;;;;;1.70;0.95;;;7.40;99.90;;;7.60;82.22;100331.94;5058199;28;20217;-80
2024/01/22 07:26:40;;;;;;;1.13;0.93;;;7.50;99.90;;;7.54;82.15;100335.41;5072638;28;20279;-82
2024/01/22 07:33:08;;;;;;;1.80;0.80;;;7.50;99.90;;;7.62;81.55;100335.25;5042909;28;20290;-83
2024/01/22 07:35:59;;;;;;;1.17;1.08;;;7.50;99.90;;;7.66;81.19;100336.53;5047033;28;20180;-81
2024/01/22 07:38:47;;;;;;;1.10;0.70;;;7.50;99.90;;;7.65;81.34;100334.88;5045033;28;20285;-83
2024/01/22 07:41:20;;;;;;;0.90;0.70;;;7.50;99.90;;;7.68;81.24;100329.09;5054151;28;20203;-83
2024/01/22 07:43:55;;;;;;;2.13;1.92;;;7.60;99.90;;;7.68;81.08;100319.16;5075772;28;20198;-82
2024/01/22 07:46:34;;;;;;;1.20;1.08;;;7.60;99.90;;;7.67;81.47;100314.78;5068028;28;20231;-83
2024/01/22 07:49:07;;;;;;;1.17;0.80;;;7.60;99.90;;;7.75;80.91;100309.25;5074334;28;20171;-83
2024/01/22 07:51:39;;;;;;;1.73;0.85;;;7.60;99.90;;;7.77;80.94;100312.59;5066798;28;20218;-82
2024/01/22 07:54:09;;;;;;;0.95;0.70;;;7.70;99.90;;;7.84;80.38;100321.53;5039580;28;20182;-82
2024/01/22 07:56:39;;;;;;;2.35;1.65;;;7.70;99.90;;;7.79;80.43;100305.13;5039653;28;20219;-82
2024/01/22 07:59:09;;;;;;;2.35;1.30;;;7.70;99.90;;;7.83;80.42;100308.28;5060307;28;20267;-82
2024/01/22 08:01:38;;;;;;;1.00;0.80;;;7.70;99.90;;;7.78;80.57;100308.88;5060820;28;20261;-83
2024/01/22 09:26:42;;;;;;;6.10;0.73;;;;;;;6.33;100.00;100258.38;4845144;29;20512;-82
2024/01/22 09:29:42;;;;;;;1.00;0.70;;;;;;;6.43;100.00;100260.75;4935427;29;20202;-82
2024/01/22 09:32:12;;;;;;;0.90;0.65;;;;;;;6.53;100.00;100248.66;4970059;28;20267;-83
2024/01/22 09:34:41;;;;;;;0.80;0.50;;;;;;;6.64;100.00;100243.78;4967565;29;20199;-83
2024/01/22 09:37:21;;;;;;;0.90;0.75;;;6.70;99.90;;;6.75;100.00;100235.22;4989202;28;20278;-84
2024/01/22 09:40:35;;;;;;;1.63;1.23;;;6.70;99.90;;;6.84;100.00;100229.50;5015398;28;20186;-82
2024/01/22 09:43:26;;;;;;;0.90;0.60;;;6.70;99.90;;;6.83;100.00;100238.59;5017967;28;20218;-82
2024/01/22 09:46:46;;;;;;;0.80;0.50;;;6.70;99.90;;;6.94;100.00;100243.44;5014185;28;20304;-80
2024/01/22 09:49:15;;;;;;;0.80;0.60;;;6.80;99.90;;;7.02;100.00;100237.09;4969126;28;20296;-83
2024/01/22 10:01:37;;;;;;;1.40;1.20;;;7.20;99.90;;;7.43;100.00;100231.78;4909459;29;20296;-82
2024/01/22 10:04:55;;;;;;;1.05;0.80;;;7.30;99.90;;;7.56;100.00;100217.56;4904337;29;20228;-83
2024/01/22 10:07:53;;;;;;;1.00;0.90;;;7.40;99.90;;;7.61;100.00;100215.13;4910199;29;20235;-82
2024/01/22 10:10:46;;;;;;;2.80;1.42;;;7.40;99.90;;;7.79;100.00;100213.53;4960408;28;20705;-82
2024/01/22 10:13:17;;;;;;;2.22;1.33;;;;;;;7.82;100.00;100212.31;4985401;28;20219;-84
2024/01/22 10:15:57;;;;;;;0.80;0.50;;;;;;;7.93;100.00;100203.69;4985968;28;20212;-83
2024/01/22 10:18:39;;;;;;;0.93;0.82;;;7.70;99.90;;;7.92;100.00;100201.19;4968147;28;20316;-84
2024/01/22 10:21:28;;;;;;;1.00;0.80;;;7.80;99.90;;;8.05;100.00;100188.56;4974037;28;20213;-83
2024/01/22 10:24:15;;;;;;;1.13;1.02;;;;;;;8.20;100.00;100200.03;5006952;28;20608;-83
2024/01/22 10:26:50;;;;;;;1.00;0.80;;;;;;;8.21;100.00;100190.91;5008704;28;20227;-83
2024/01/22 10:29:48;;;;;;;1.85;1.42;;;;;;;8.22;100.00;100181.78;5006934;28;20204;-83
2024/01/22 10:32:22;;;;;;;1.50;0.93;;;;;;;8.41;100.00;100184.75;5066284;28;20234;-81
2024/01/22 10:34:57;;;;;;;5.93;1.33;;;;;;;8.43;99.13;100185.34;5082558;28;20200;-84
2024/01/22 10:37:38;;;;;;;0.90;0.57;;;;;;;8.41;98.75;100168.56;5064038;28;20228;-85
2024/01/22 10:40:10;;;;;;;0.90;0.63;;;;;;;8.48;99.03;100156.75;5085060;28;20217;-84
2024/01/22 10:42:40;;;;;;;1.30;0.77;;;;;;;8.58;98.03;100156.34;5085473;28;20203;-82
2024/01/22 10:45:22;;;;;;;1.00;0.82;;;;;;;8.70;96.71;100152.84;5076508;28;20299;-82
2024/01/22 10:48:30;;;;;;;1.25;1.15;;;8.70;99.90;;;8.88;95.19;100157.59;5078062;28;20251;-83
2024/01/22 10:51:13;;;;;;;1.00;0.60;;;8.70;99.90;;;8.91;95.47;100149.06;5085767;28;20716;-83
2024/01/22 10:53:44;;;;;;;1.10;0.98;;;;;;;8.96;94.10;100151.13;5093306;28;20214;-82
2024/01/22 10:56:19;;;;;;;0.90;0.60;;;;;;;8.99;94.19;100134.53;5087960;28;20184;-82
2024/01/22 10:58:52;;;;;;;1.50;1.00;;;;;;;9.08;93.79;100147.59;5073886;28;20206;-84
2024/01/22 11:01:30;;;;;;;0.90;0.50;;;;;;;9.16;93.66;100136.56;5068911;28;20290;-82
2024/01/22 11:04:01;;;;;;;1.48;0.95;;;;;;;9.09;92.88;100133.06;5083956;28;20251;-84
2024/01/22 11:06:37;;;;;;;1.98;0.98;;;;;;;9.03;93.35;100115.00;5094533;28;20594;-84
2024/01/22 11:09:18;;;;;;;0.90;0.63;;;;;;;9.16;92.35;100114.13;5073053;28;20217;-84
2024/01/22 11:12:00;;;;;;;0.90;0.60;;;9.10;99.90;;;9.20;92.56;100111.88;5069786;28;20202;-84
2024/01/22 11:14:46;;;;;;;1.63;0.80;;;9.10;99.90;;;9.23;92.45;100116.84;5068630;28;20254;-82
2024/01/22 11:17:18;;;;;;;0.90;0.70;;;9.10;99.90;;;9.25;92.19;100098.53;5090442;28;20238;-84
2024/01/22 11:19:50;;;;;;;3.28;1.40;;;9.10;99.90;;;9.38;92.10;100101.22;5073139;28;20222;-83
2024/01/22 11:22:32;;;;;;;0.80;0.50;;;9.20;99.90;;;9.41;91.98;100095.38;5094233;28;20218;-83
2024/01/22 11:25:02;;;;;;;1.10;0.80;;;9.20;99.90;;;9.29;92.19;100094.41;5088589;28;20191;-83
2024/01/22 11:27:39;;;;;;;1.00;0.60;;;9.20;99.90;;;9.33;91.92;100079.41;5062428;28;20239;-83
2024/01/22 11:30:39;;;;;;;1.60;0.85;;;9.10;99.90;;;9.31;91.68;100079.63;5071967;28;20777;-84
2024/01/22 11:33:33;;;;;;;1.02;0.63;;;9.20;99.90;;;9.37;91.49;100072.53;4996104;28;20276;-84
2024/01/22 11:36:07;;;;;;;1.33;0.90;;;9.20;99.90;;;9.35;92.25;100063.81;5062329;28;20712;-81
2024/01/22 11:39:12;;;;;;;3.45;1.00;;;9.20;99.90;;;9.37;91.61;100072.53;5071853;28;20196;-83
2024/01/22 11:41:41;;;;;;;1.00;0.60;;;9.20;99.90;;;9.44;91.30;100062.56;5085765;28;20192;-82
2024/01/22 11:44:16;;;;;;;1.13;0.70;;;9.30;99.90;;;9.48;90.67;100069.19;5083693;28;20188;-83
2024/01/22 11:46:47;;;;;;;0.90;0.60;;;9.30;99.90;;;9.57;90.92;100062.47;5059239;28;20216;-85
2024/01/22 11:49:19;;;;;;;1.70;1.05;;;9.40;99.90;;;9.57;90.31;100062.47;5077869;28;20194;-82
2024/01/22 11:51:57;;;;;;;1.10;0.90;;;9.40;99.90;;;9.64;89.95;100052.44;5069216;28;20199;-83
2024/01/22 11:54:36;;;;;;;1.30;0.70;;;9.50;99.90;;;9.64;89.95;100052.44;5073905;28;20189;-83
2024/01/22 11:57:25;;;;;;;2.38;1.10;;;9.50;99.90;;;9.62;89.61;100051.88;5051588;28;20482;-83
2024/01/22 12:00:19;;;;;;;1.23;0.80;;;9.50;99.90;;;9.51;89.91;100060.63;5073871;28;20218;-85
2024/01/22 12:03:01;;;;;;;1.00;0.60;;;9.40;99.90;;;9.58;90.05;100061.44;5071572;28;20196;-85
2024/01/22 12:05:58;;;;;;;1.00;0.80;;;9.40;99.90;;;9.59;90.14;100052.28;5076756;28;20196;-81
2024/01/22 12:08:41;;;;;;;0.80;0.45;;;9.50;99.90;;;9.61;90.47;100047.50;5096762;28;20417;-80
2024/01/22 12:11:16;;;;;;;1.70;0.65;;;9.50;99.90;;;9.70;89.25;100050.75;5080198;28;20180;-80
2024/01/22 12:13:46;;;;;;;0.90;0.70;;;9.60;99.90;;;9.86;89.25;100045.69;5077734;28;20192;-82
2024/01/22 12:16:19;;;;;;;1.35;1.25;;;9.60;99.90;;;10.09;88.10;100046.97;5086320;28;20405;-82
2024/01/22 12:18:58;;;;;;;3.50;1.00;;;9.80;99.90;;;10.00;88.40;100036.44;5084017;28;20194;-84
2024/01/22 12:21:38;;;;;;;3.07;0.90;;;9.80;99.90;;;10.01;88.00;100039.97;5062772;28;20405;-83
2024/01/22 12:24:19;;;;;;;0.90;0.60;;;9.80;99.90;;;9.95;89.03;100038.97;5076756;28;20430;-83
2024/01/22 12:27:01;;;;;;;1.13;0.80;;;9.80;99.90;;;9.87;88.50;100035.72;5074723;28;20489;-82
2024/01/22 12:29:33;;;;;;;1.33;0.80;;;9.70;99.90;;;9.85;89.21;100029.69;5078090;28;20409;-84
2024/01/22 12:32:08;;;;;;;1.63;0.90;;;9.70;99.90;;;9.83;89.01;100029.06;5062282;28;20448;-85
2024/01/22 12:34:37;;;;;;;1.23;0.73;;;9.70;99.90;;;9.76;89.83;100023.72;5059898;28;20427;-82
2024/01/22 12:37:18;;;;;;;1.20;0.80;;;9.70;99.90;;;9.85;89.55;100022.41;5078447;28;20499;-85
2024/01/22 12:40:20;;;;;;;1.20;0.60;;;9.70;99.90;;;9.66;90.58;100011.72;5060162;28;20472;-85
2024/01/22 12:43:03;;;;;;;1.15;0.82;;;9.60;99.90;;;9.60;90.70;100011.56;5054930;28;20501;-85
2024/01/22 12:45:48;;;;;;;1.80;0.60;;;9.50;99.90;;;9.79;90.57;100007.06;5080488;28;20614;-83
2024/01/22 12:48:20;;;;;;;0.90;0.60;;;9.60;99.90;;;9.90;89.67;100006.38;5084823;28;20266;-85
2024/01/22 12:50:50;;;;;;;2.63;1.67;;;9.70;99.90;;;9.92;89.48;100009.66;5079649;28;20220;-84
2024/01/22 12:53:21;;;;;;;0.90;0.60;;;9.70;99.90;;;9.81;89.92;100004.16;5082205;28;20449;-83
2024/01/22 12:55:55;;;;;;;1.67;0.60;;;9.70;99.90;;;9.78;90.14;100007.31;5091307;28;20183;-83
2024/01/22 12:58:57;;;;;;;1.75;1.25;;;9.60;99.90;;;9.88;90.17;99999.50;5076941;28;20424;-80
2024/01/22 13:01:29;;;;;;;0.90;0.60;;;9.70;99.90;;;9.95;89.20;100001.13;5064830;28;20291;-81
2024/01/22 13:04:12;;;;;;;1.07;0.70;;;9.80;99.90;;;9.85;89.72;99995.38;5107572;28;20403;-82
2024/01/22 13:06:45;;;;;;;4.15;1.48;;;9.70;99.90;;;9.70;90.44;100005.69;5084265;28;20513;-84
2024/01/22 13:09:14;;;;;;;0.90;0.70;;;9.60;99.90;;;9.84;90.21;100003.69;5085108;28;20278;-84
2024/01/22 13:11:46;;;;;;;1.00;0.70;;;9.70;99.90;;;9.90;89.90;99992.03;5074009;28;20441;-83
2024/01/22 13:14:17;;;;;;;1.00;0.90;;;9.70;99.90;;;10.01;89.53;99994.84;5084734;28;20426;-82
2024/01/22 13:16:48;;;;;;;0.90;0.70;;;9.80;99.90;;;9.89;89.29;99977.69;5082358;28;20450;-83
2024/01/22 13:19:26;;;;;;;1.33;0.63;;;9.70;99.90;;;9.87;89.63;99982.50;5066599;28;20438;-82
2024/01/22 13:21:59;;;;;;;1.63;0.97;;;9.70;99.90;;;10.06;88.85;99987.97;5075500;28;20452;-83
2024/01/22 13:24:42;;;;;;;1.30;0.70;;;9.80;99.90;;;10.13;88.36;99970.63;5084886;28;20495;-83
2024/01/22 13:27:22;;;;;;;1.13;0.70;;;10.00;99.90;;;10.20;87.87;99965.19;5067403;28;20502;-80
2024/01/22 13:30:07;;;;;;;1.00;0.90;;;10.00;99.90;;;9.99;88.64;99964.50;5066618;28;20438;-81
2024/01/22 13:33:04;;;;;;;1.50;0.80;;;9.90;99.90;;;10.03;88.60;99964.88;5064623;28;20656;-84
2024/01/22 13:36:08;;;;;;;1.27;1.17;;;9.90;99.90;;;10.03;89.07;99959.47;5054246;28;20961;-82
2024/01/22 13:38:42;;;;;;;0.90;0.60;;;9.80;99.90;;;10.00;89.01;99960.75;5081820;28;20874;-82
2024/01/22 13:41:29;;;;;;;1.47;0.50;;;9.90;99.90;;;10.07;89.07;99954.47;5084220;28;20434;-82
2024/01/22 13:44:12;;;;;;;1.00;0.80;;;9.90;99.90;;;10.03;89.48;99957.59;5090334;28;20422;-83
2024/01/22 13:46:55;;;;;;;0.87;0.63;;;9.90;99.90;;;9.98;89.36;99954.75;5066134;28;20470;-83
2024/01/22 13:49:55;;;;;;;1.10;0.83;;;9.80;99.90;;;10.04;89.19;99937.66;5052841;28;20489;-83
2024/01/22 13:52:56;;;;;;;1.00;0.80;;;9.90;99.90;;;10.04;89.39;99932.25;5066147;28;20497;-82
2024/01/22 13:55:38;;;;;;;1.70;0.73;;;9.90;99.90;;;10.09;88.85;99928.03;5085568;28;20919;-82
2024/01/22 13:58:24;;;;;;;1.50;0.80;;;9.90;99.90;;;10.11;89.12;99934.88;5081348;28;20480;-83
2024/01/22 14:01:01;;;;;;;1.20;0.60;;;9.90;99.90;;;10.15;88.86;99929.84;5086027;28;20438;-85
2024/01/22 14:03:34;;;;;;;0.90;0.60;;;10.00;99.90;;;10.10;89.02;99935.94;5056487;28;20939;-83
2024/01/22 14:06:08;;;;;;;1.00;0.80;;;10.00;99.90;;;10.04;89.38;99929.53;5066747;28;20446;-85
2024/01/22 14:08:41;;;;;;;0.90;0.57;;;9.90;99.90;;;10.16;88.86;99926.97;5085002;28;20462;-83
2024/01/22 14:11:11;;;;;;;1.30;0.70;;;10.00;99.90;;;10.10;89.13;99937.81;5081259;28;20807;-83
2024/01/22 14:13:42;;;;;;;1.30;0.73;;;10.00;99.90;;;10.12;88.98;99931.13;5061221;28;20441;-80
2024/01/22 14:16:11;;;;;;;1.67;0.60;;;10.00;99.90;;;10.18;88.86;99924.03;5098512;28;20428;-81
2024/01/22 14:18:42;;;;;;;1.00;0.87;;;10.00;99.90;;;10.14;89.00;99918.22;5088107;28;20428;-82
2024/01/22 14:21:13;;;;;;;2.00;0.87;;;10.00;99.90;;;10.26;88.35;99929.16;5092843;28;20430;-84
2024/01/22 14:23:44;;;;;;;1.07;0.73;;;10.10;99.90;;;10.21;88.47;99937.13;5053539;28;20860;-84
2024/01/22 14:26:17;;;;;;;1.85;1.02;;;10.10;99.90;;;10.12;89.10;99935.72;5061360;28;20489;-82
2024/01/22 14:28:48;;;;;;;0.80;0.50;;;10.00;99.90;;;10.13;89.30;99937.34;5065571;28;20232;-81
2024/01/22 14:31:28;;;;;;;1.00;0.80;;;10.00;99.90;;;10.18;89.17;99942.94;5070059;28;20457;-85
2024/01/22 14:34:02;;;;;;;1.73;1.23;;;10.00;99.90;;;10.17;89.25;99933.19;5093129;28;20472;-83
2024/01/22 14:36:33;;;;;;;0.90;0.60;;;10.00;99.90;;;10.03;89.65;99922.47;5083642;28;20454;-83